createdAt,value
2023-01-13T00:01:09.775Z,94437.94
2023-01-13T00:03:36.874Z,94433.41
2023-01-13T00:06:04.776Z,94436.56
2023-01-13T00:08:31.859Z,94442.50
2023-01-13T00:10:58.701Z,94446.53
2023-01-13T00:13:28.294Z,94445.81
2023-01-13T00:15:59.679Z,94446.28
2023-01-13T00:18:26.841Z,94440.25
2023-01-13T00:21:05.056Z,94447.09
2023-01-13T00:23:33.484Z,94447.28
2023-01-13T00:26:02.992Z,94439.31
2023-01-13T00:28:29.800Z,94437.28
2023-01-13T00:30:58.597Z,94434.16
2023-01-13T00:33:25.779Z,94437.88
2023-01-13T00:35:59.907Z,94437.97
2023-01-13T00:38:26.645Z,94435.81
2023-01-13T00:41:05.952Z,94442.50
2023-01-13T00:43:34.337Z,94441.47
2023-01-13T00:46:01.890Z,94442.53
2023-01-13T00:48:29.070Z,94434.56
2023-01-13T00:51:00.363Z,94443.81
2023-01-13T00:53:28.086Z,94438.59
2023-01-13T00:56:14.291Z,94442.72
2023-01-13T00:58:41.733Z,94437.47
2023-01-13T01:01:11.531Z,94437.00
2023-01-13T01:03:38.630Z,94432.34
2023-01-13T01:06:12.201Z,94428.91
2023-01-13T01:08:39.241Z,94425.25
2023-01-13T01:11:29.851Z,94427.00
2023-01-13T01:13:58.516Z,94421.00
2023-01-13T01:16:27.405Z,94423.22
2023-01-13T01:18:55.568Z,94419.78
2023-01-13T01:21:24.748Z,94425.97
2023-01-13T01:23:51.724Z,94422.66
2023-01-13T01:26:21.055Z,94428.34
2023-01-13T01:28:48.425Z,94414.94
2023-01-13T01:31:18.219Z,94420.16
2023-01-13T01:33:47.491Z,94415.09
2023-01-13T01:36:15.965Z,94421.81
2023-01-13T01:38:43.355Z,94414.66
2023-01-13T01:41:14.915Z,94413.97
2023-01-13T01:44:07.298Z,94400.38
2023-01-13T01:46:44.825Z,94401.31
2023-01-13T01:49:15.499Z,94406.44
2023-01-13T01:51:49.815Z,94396.06
2023-01-13T01:54:21.295Z,94403.84
2023-01-13T01:56:48.474Z,94401.19
2023-01-13T01:59:15.978Z,94399.13
2023-01-13T02:01:43.849Z,94400.94
2023-01-13T02:04:33.871Z,94401.75
2023-01-13T02:07:02.919Z,94403.50
2023-01-13T02:09:30.439Z,94400.84
2023-01-13T02:12:15.675Z,94397.97
2023-01-13T02:14:42.960Z,94400.84
2023-01-13T02:17:21.916Z,94406.41
2023-01-13T02:20:22.794Z,94402.44
2023-01-13T02:23:08.105Z,94396.34
2023-01-13T02:26:11.586Z,94392.13
2023-01-13T02:29:15.932Z,94394.13
2023-01-13T02:31:47.117Z,94391.13
2023-01-13T02:34:31.022Z,94397.97
2023-01-13T02:37:22.510Z,94401.78
2023-01-13T02:40:02.778Z,94395.34
2023-01-13T02:43:02.234Z,94398.00
2023-01-13T02:45:33.909Z,94397.53
2023-01-13T02:48:03.011Z,94395.25
2023-01-13T02:50:35.935Z,94390.72
2023-01-13T02:53:08.766Z,94399.28
2023-01-13T02:55:46.470Z,94394.19
2023-01-13T02:58:17.359Z,94394.31
2023-01-13T03:00:45.552Z,94393.50
2023-01-13T03:03:12.159Z,94391.78
2023-01-13T03:05:40.883Z,94394.59
2023-01-13T03:08:15.623Z,94390.34
2023-01-13T03:10:51.140Z,94393.00
2023-01-13T03:13:29.908Z,94393.28
2023-01-13T03:16:11.606Z,94393.69
2023-01-13T03:19:03.098Z,94398.41
2023-01-13T03:21:44.259Z,94386.50
2023-01-13T03:24:20.591Z,94397.69
2023-01-13T03:27:17.211Z,94393.50
2023-01-13T03:29:52.793Z,94397.44
2023-01-13T03:32:42.458Z,94392.22
2023-01-13T03:35:16.045Z,94396.94
2023-01-13T03:37:47.879Z,94395.34
2023-01-13T03:40:22.073Z,94402.38
2023-01-13T03:43:14.236Z,94401.09
2023-01-13T03:45:43.226Z,94407.94
2023-01-13T03:48:16.500Z,94400.19
2023-01-13T03:50:56.389Z,94398.59
2023-01-13T03:53:33.403Z,94411.88
2023-01-13T03:56:08.496Z,94403.91
2023-01-13T03:58:48.169Z,94406.94
2023-01-13T04:01:35.316Z,94408.94
2023-01-13T04:04:08.509Z,94404.75
2023-01-13T04:06:50.584Z,94407.56
2023-01-13T04:09:33.453Z,94406.00
2023-01-13T04:12:13.334Z,94417.16
2023-01-13T04:14:40.876Z,94416.81
2023-01-13T04:17:07.471Z,94417.44
2023-01-13T04:19:34.083Z,94416.50
2023-01-13T04:22:00.730Z,94412.09
2023-01-13T04:24:27.385Z,94410.06
2023-01-13T04:26:54.034Z,94418.66
2023-01-13T04:29:20.581Z,94422.38
2023-01-13T04:31:47.175Z,94420.00
2023-01-13T04:34:13.911Z,94421.28
2023-01-13T04:36:40.778Z,94418.97
2023-01-13T04:39:07.425Z,94427.56
2023-01-13T04:41:53.948Z,94422.16
2023-01-13T04:44:20.570Z,94426.59
2023-01-13T04:46:47.404Z,94434.63
2023-01-13T04:49:14.189Z,94420.28
2023-01-13T04:51:40.805Z,94416.19
2023-01-13T04:54:07.512Z,94422.59
2023-01-13T04:56:34.164Z,94429.47
2023-01-13T04:59:00.780Z,94422.13
2023-01-13T05:01:27.666Z,94426.03
2023-01-13T05:03:54.389Z,94431.34
2023-01-13T05:06:21.071Z,94435.06
2023-01-13T05:08:47.697Z,94434.75
2023-01-13T05:11:33.179Z,94436.66
2023-01-13T05:14:18.416Z,94431.34
2023-01-13T05:17:02.260Z,94427.44
2023-01-13T05:19:35.658Z,94441.31
2023-01-13T05:22:21.583Z,94441.13
2023-01-13T05:25:06.470Z,94438.78
2023-01-13T05:27:33.856Z,94447.13
2023-01-13T05:30:00.744Z,94444.00
2023-01-13T05:32:31.140Z,94444.13
2023-01-13T05:34:57.749Z,94442.03
2023-01-13T05:37:24.788Z,94441.50
2023-01-13T05:40:14.741Z,94446.91
2023-01-13T05:43:00.045Z,94440.97
2023-01-13T05:45:26.982Z,94436.41
2023-01-13T05:47:53.579Z,94429.38
2023-01-13T05:50:21.434Z,94440.50
2023-01-13T05:52:48.133Z,94439.47
2023-01-13T05:55:14.958Z,94443.47
2023-01-13T05:57:41.889Z,94445.09
2023-01-13T06:00:09.127Z,94454.03
2023-01-13T06:02:35.750Z,94453.31
2023-01-13T06:05:11.345Z,94455.09
2023-01-13T06:07:38.000Z,94450.03
2023-01-13T06:10:04.933Z,94451.44
2023-01-13T06:12:31.663Z,94458.19
2023-01-13T06:14:58.264Z,94462.31
2023-01-13T06:17:24.881Z,94471.44
2023-01-13T06:19:51.487Z,94472.94
2023-01-13T06:22:33.025Z,94472.53
2023-01-13T06:24:59.761Z,94474.00
2023-01-13T06:27:26.436Z,94477.69
2023-01-13T06:29:53.033Z,94475.81
2023-01-13T06:32:23.396Z,94473.75
2023-01-13T06:34:55.573Z,94475.38
2023-01-13T06:37:26.198Z,94473.44
2023-01-13T06:39:58.157Z,94482.25
2023-01-13T06:42:46.444Z,94479.31
2023-01-13T06:45:13.114Z,94471.41
2023-01-13T06:47:39.904Z,94470.09
2023-01-13T06:50:06.838Z,94464.31
2023-01-13T06:52:33.416Z,94470.97
2023-01-13T06:55:00.036Z,94466.72
2023-01-13T06:57:26.617Z,94467.34
2023-01-13T06:59:53.441Z,94468.03
2023-01-13T07:02:20.417Z,94471.28
2023-01-13T07:04:47.168Z,94473.28
2023-01-13T07:07:14.181Z,94469.50
2023-01-13T07:09:40.781Z,94472.50
2023-01-13T07:12:07.740Z,94462.31
2023-01-13T07:14:54.479Z,94466.91
2023-01-13T07:17:25.447Z,94468.94
2023-01-13T07:19:53.195Z,94465.63
2023-01-13T07:22:19.832Z,94461.03
2023-01-13T07:24:46.566Z,94459.66
2023-01-13T07:27:13.312Z,94458.19
2023-01-13T07:29:39.866Z,94466.25
2023-01-13T07:32:07.993Z,94459.50
2023-01-13T07:34:34.727Z,94455.75
2023-01-13T07:37:01.816Z,94453.97
2023-01-13T07:39:28.376Z,94460.09
2023-01-13T07:42:13.958Z,94461.75
2023-01-13T07:44:40.602Z,94456.47
2023-01-13T07:47:08.579Z,94464.88
2023-01-13T07:49:35.135Z,94465.94
2023-01-13T07:52:01.916Z,94462.88
2023-01-13T07:54:40.313Z,94456.19
2023-01-13T07:57:08.064Z,94465.25
2023-01-13T07:59:34.704Z,94470.88
2023-01-13T08:02:01.466Z,94471.97
2023-01-13T08:04:28.203Z,94476.41
2023-01-13T08:06:54.787Z,94473.78
2023-01-13T08:09:21.375Z,94478.53
2023-01-13T08:12:13.708Z,94471.66
2023-01-13T08:14:40.346Z,94474.78
2023-01-13T08:17:10.622Z,94474.78
2023-01-13T08:19:37.239Z,94468.06
2023-01-13T08:22:03.858Z,94469.47
2023-01-13T08:24:30.547Z,94470.09
2023-01-13T08:27:03.145Z,94472.28
2023-01-13T08:29:54.146Z,94467.59
2023-01-13T08:32:21.032Z,94466.38
2023-01-13T08:37:30.938Z,94468.38
2023-01-13T08:40:16.939Z,94466.63
2023-01-13T08:43:19.316Z,94480.72
2023-01-13T08:46:09.264Z,94469.16
2023-01-13T08:51:51.117Z,94479.31
2023-01-13T08:54:19.005Z,94472.44
2023-01-13T08:56:47.158Z,94474.13
2023-01-13T08:59:16.102Z,94474.13
2023-01-13T09:01:43.266Z,94471.97
2023-01-13T09:04:20.490Z,94469.47
2023-01-13T09:06:47.907Z,94466.16
2023-01-13T09:09:15.171Z,94462.00
2023-01-13T09:12:03.502Z,94473.69
2023-01-13T09:14:32.257Z,94466.50
2023-01-13T09:16:59.962Z,94466.03
2023-01-13T09:19:27.582Z,94468.69
2023-01-13T09:21:55.556Z,94469.00
2023-01-13T09:24:23.489Z,94463.94
2023-01-13T09:26:50.412Z,94465.47
2023-01-13T09:29:17.939Z,94456.22
2023-01-13T09:31:44.703Z,94455.97
2023-01-13T09:34:34.200Z,94458.22
2023-01-13T09:37:01.279Z,94458.38
2023-01-13T09:39:27.915Z,94464.66
2023-01-13T09:42:15.918Z,94462.97
2023-01-13T09:44:56.119Z,94459.09
2023-01-13T09:47:44.604Z,94460.69
2023-01-13T09:50:14.165Z,94456.66
2023-01-13T09:52:45.881Z,94452.97
2023-01-13T09:55:22.874Z,94459.78
2023-01-13T09:57:49.483Z,94449.75
2023-01-13T10:00:22.381Z,94448.09
2023-01-13T10:03:04.245Z,94447.47
2023-01-13T10:05:41.211Z,94438.81
2023-01-13T10:08:22.058Z,94441.88
2023-01-13T10:10:51.494Z,94438.06
2023-01-13T10:13:26.501Z,94441.06
2023-01-13T10:15:53.073Z,94437.44
2023-01-13T10:18:46.073Z,94436.53
2023-01-13T10:21:43.864Z,94439.94
2023-01-13T10:24:48.161Z,94432.81
2023-01-13T10:27:27.471Z,94428.75
2023-01-13T10:29:54.038Z,94430.13
2023-01-13T10:32:20.690Z,94424.28
2023-01-13T10:34:52.000Z,94418.03
2023-01-13T10:37:24.320Z,94422.53
2023-01-13T10:39:55.508Z,94422.25
2023-01-13T10:42:24.594Z,94416.41
2023-01-13T10:44:51.145Z,94419.34
2023-01-13T10:47:20.763Z,94413.75
2023-01-13T10:50:01.138Z,94410.75
2023-01-13T10:52:30.069Z,94414.81
2023-01-13T10:54:57.120Z,94412.28
2023-01-13T10:57:26.946Z,94410.50
2023-01-13T10:59:54.851Z,94405.38
2023-01-13T11:02:30.711Z,94409.16
2023-01-13T11:05:03.233Z,94408.38
2023-01-13T11:07:36.630Z,94408.38
2023-01-13T11:10:09.155Z,94414.28
2023-01-13T11:12:50.904Z,94402.94
2023-01-13T11:15:22.780Z,94400.13
2023-01-13T11:17:53.594Z,94399.88
2023-01-13T11:20:42.029Z,94401.69
2023-01-13T11:23:40.107Z,94393.66
2023-01-13T11:26:23.839Z,94399.50
2023-01-13T11:29:00.120Z,94412.19
2023-01-13T11:31:36.177Z,94389.50
2023-01-13T11:34:27.151Z,94402.53
2023-01-13T11:36:57.526Z,94396.63
2023-01-13T11:39:33.504Z,94396.69
2023-01-13T11:42:24.305Z,94387.13
2023-01-13T11:45:17.578Z,94387.41
2023-01-13T11:47:51.351Z,94389.84
2023-01-13T11:50:51.084Z,94382.53
2023-01-13T11:53:36.543Z,94385.00
2023-01-13T11:56:05.919Z,94392.66
2023-01-13T11:58:51.691Z,94389.88
2023-01-13T12:01:30.344Z,94388.81
2023-01-13T12:04:43.308Z,94384.56
2023-01-13T12:07:47.399Z,94377.78
2023-01-13T12:10:43.976Z,94381.81
2023-01-13T12:13:48.891Z,94374.19
2023-01-13T12:19:32.145Z,94368.97
2023-01-13T12:22:16.295Z,94364.97
2023-01-13T12:25:06.479Z,94363.97
2023-01-13T12:28:13.321Z,94364.81
2023-01-13T12:31:18.331Z,94362.72
2023-01-13T12:34:03.130Z,94363.66
2023-01-13T12:37:04.475Z,94361.31
2023-01-13T12:40:10.459Z,94371.25
2023-01-13T12:43:10.885Z,94367.69
2023-01-13T12:45:37.654Z,94375.97
2023-01-13T12:48:05.205Z,94381.69
2023-01-13T12:50:31.769Z,94373.47
2023-01-13T12:53:19.452Z,94378.63
2023-01-13T12:55:51.806Z,94372.34
2023-01-13T12:58:28.169Z,94370.44
2023-01-13T13:01:28.974Z,94373.56
2023-01-13T13:04:17.862Z,94379.34
2023-01-13T13:07:04.920Z,94381.53
2023-01-13T13:09:39.815Z,94376.84
2023-01-13T13:12:49.914Z,94378.91
2023-01-13T13:15:24.409Z,94377.28
2023-01-13T13:18:03.159Z,94381.41
2023-01-13T13:20:54.645Z,94388.13
2023-01-13T13:23:32.858Z,94387.03
2023-01-13T13:26:24.020Z,94380.47
2023-01-13T13:29:12.209Z,94382.50
2023-01-13T13:31:44.798Z,94389.22
2023-01-13T13:34:40.667Z,94385.28
2023-01-13T13:37:07.218Z,94386.63
2023-01-13T13:39:52.992Z,94389.69
2023-01-13T13:42:35.947Z,94383.84
2023-01-13T13:45:31.387Z,94386.13
2023-01-13T13:47:57.984Z,94390.78
2023-01-13T13:50:24.694Z,94383.19
2023-01-13T13:52:58.848Z,94389.69
2023-01-13T13:55:27.760Z,94384.34
2023-01-13T13:57:57.519Z,94381.25
2023-01-13T14:00:34.541Z,94392.44
2023-01-13T14:03:04.184Z,94389.22
2023-01-13T14:05:35.546Z,94391.13
2023-01-13T14:08:18.338Z,94390.00
2023-01-13T14:10:46.303Z,94384.38
2023-01-13T14:13:20.674Z,94383.44
2023-01-13T14:15:50.490Z,94381.63
2023-01-13T14:18:21.724Z,94383.50
2023-01-13T14:20:54.307Z,94389.22
2023-01-13T14:23:26.651Z,94389.16
2023-01-13T14:25:53.758Z,94388.91
2023-01-13T14:28:45.411Z,94395.88
2023-01-13T14:31:16.180Z,94395.59
2023-01-13T14:34:31.812Z,94394.31
2023-01-13T14:36:54.901Z,94402.41
2023-01-13T14:39:26.115Z,94405.19
2023-01-13T14:41:53.487Z,94397.41
2023-01-13T14:44:34.619Z,94395.75
2023-01-13T14:47:05.196Z,94400.41
2023-01-13T14:49:39.461Z,94399.78
2023-01-13T14:52:20.019Z,94410.00
2023-01-13T14:54:58.699Z,94408.66
2023-01-13T14:57:25.935Z,94412.53
2023-01-13T14:59:56.209Z,94409.50
2023-01-13T15:02:25.766Z,94410.91
2023-01-13T15:04:58.721Z,94405.47
2023-01-13T15:07:28.108Z,94410.59
2023-01-13T15:09:58.229Z,94418.69
2023-01-13T15:12:36.300Z,94408.94
2023-01-13T15:15:07.916Z,94410.34
2023-01-13T15:17:35.066Z,94413.06
2023-01-13T15:20:03.213Z,94409.00
2023-01-13T15:22:29.940Z,94412.50
2023-01-13T15:24:57.485Z,94418.94
2023-01-13T15:27:26.056Z,94419.78
2023-01-13T15:29:52.659Z,94411.06
2023-01-13T15:32:21.189Z,94423.75
2023-01-13T15:34:48.940Z,94427.41
2023-01-13T15:37:17.259Z,94424.66
2023-01-13T15:39:44.060Z,94419.59
2023-01-13T15:42:32.580Z,94425.50
2023-01-13T15:45:17.983Z,94427.59
2023-01-13T15:47:45.207Z,94426.63
2023-01-13T15:50:19.342Z,94430.66
2023-01-13T15:52:46.068Z,94430.94
2023-01-13T15:55:18.971Z,94433.13
2023-01-13T15:57:49.916Z,94420.88
2023-01-13T16:00:30.952Z,94426.19
2023-01-13T16:03:11.456Z,94425.59
2023-01-13T16:05:38.816Z,94425.97
2023-01-13T16:08:05.948Z,94427.97
2023-01-13T16:10:32.739Z,94429.69
2023-01-13T16:12:59.350Z,94428.88
2023-01-13T16:15:26.172Z,94429.09
2023-01-13T16:17:57.893Z,94424.97
2023-01-13T16:20:24.787Z,94424.69
2023-01-13T16:22:51.452Z,94424.75
2023-01-13T16:25:23.650Z,94426.53
2023-01-13T16:27:51.191Z,94420.72
2023-01-13T16:30:27.367Z,94428.06
2023-01-13T16:32:55.198Z,94426.44
2023-01-13T16:35:23.427Z,94433.00
2023-01-13T16:37:50.658Z,94429.94
2023-01-13T16:40:25.175Z,94421.59
2023-01-13T16:42:52.428Z,94419.13
2023-01-13T16:45:19.582Z,94413.53
2023-01-13T16:47:46.584Z,94425.75
2023-01-13T16:50:22.600Z,94426.13
2023-01-13T16:52:49.920Z,94417.44
2023-01-13T16:55:16.695Z,94429.44
2023-01-13T16:57:43.325Z,94430.28
2023-01-13T17:00:12.447Z,94428.75
2023-01-13T17:02:39.748Z,94430.25
2023-01-13T17:05:07.283Z,94441.25
2023-01-13T17:07:33.933Z,94432.25
2023-01-13T17:10:00.643Z,94433.66
2023-01-13T17:12:27.327Z,94430.28
2023-01-13T17:14:53.934Z,94425.75
2023-01-13T17:17:26.070Z,94426.53
2023-01-13T17:19:53.827Z,94432.09
2023-01-13T17:22:21.887Z,94436.53
2023-01-13T17:24:48.909Z,94426.78
2023-01-13T17:27:17.343Z,94424.06
2023-01-13T17:29:44.221Z,94421.19
2023-01-13T17:32:16.569Z,94426.59
2023-01-13T17:34:43.629Z,94427.41
2023-01-13T17:37:13.818Z,94432.97
2023-01-13T17:39:43.662Z,94442.34
2023-01-13T17:42:11.607Z,94434.31
2023-01-13T17:44:38.747Z,94438.97
2023-01-13T17:47:05.819Z,94434.31
2023-01-13T17:49:32.950Z,94434.22
2023-01-13T17:51:59.611Z,94433.53
2023-01-13T17:54:26.332Z,94426.78
2023-01-13T17:56:52.996Z,94425.34
2023-01-13T17:59:20.085Z,94432.00
2023-01-13T18:01:46.786Z,94429.38
2023-01-13T18:04:18.150Z,94431.50
2023-01-13T18:06:45.755Z,94427.50
2023-01-13T18:09:12.472Z,94429.06
2023-01-13T18:11:39.646Z,94418.03
2023-01-13T18:14:09.897Z,94422.56
2023-01-13T18:16:49.413Z,94431.78
2023-01-13T18:19:35.030Z,94431.69
2023-01-13T18:22:27.439Z,94430.28
2023-01-13T18:25:12.778Z,94429.25
2023-01-13T18:27:41.812Z,94427.03
2023-01-13T18:30:23.026Z,94429.47
2023-01-13T18:32:50.505Z,94427.72
2023-01-13T18:35:17.149Z,94435.75
2023-01-13T18:37:44.365Z,94433.16
2023-01-13T18:40:13.667Z,94439.41
2023-01-13T18:42:56.239Z,94434.31
2023-01-13T18:45:29.223Z,94440.69
2023-01-13T18:47:58.603Z,94428.53
2023-01-13T18:50:25.481Z,94428.34
2023-01-13T18:52:53.411Z,94430.81
2023-01-13T18:55:21.083Z,94428.94
2023-01-13T18:57:48.838Z,94428.72
2023-01-13T19:00:20.023Z,94422.03
2023-01-13T19:05:34.616Z,94422.69
2023-01-13T19:08:02.141Z,94428.84
2023-01-13T19:10:32.118Z,94424.88
2023-01-13T19:12:59.091Z,94431.69
2023-01-13T19:15:38.755Z,94424.69
2023-01-13T19:18:05.610Z,94426.25
2023-01-13T19:20:32.348Z,94417.31
2023-01-13T19:22:58.968Z,94418.53
2023-01-13T19:25:25.620Z,94420.34
2023-01-13T19:27:52.289Z,94422.66
2023-01-13T19:30:19.394Z,94425.28
2023-01-13T19:32:46.089Z,94420.28
2023-01-13T19:35:17.512Z,94423.06
2023-01-13T19:37:54.006Z,94412.63
2023-01-13T19:40:20.872Z,94414.88
2023-01-13T19:43:06.416Z,94413.00
2023-01-13T19:45:35.405Z,94406.91
2023-01-13T19:48:04.840Z,94421.31
2023-01-13T19:50:36.762Z,94416.78
2023-01-13T19:53:03.655Z,94422.47
2023-01-13T19:55:33.113Z,94417.69
2023-01-13T19:58:04.082Z,94422.00
2023-01-13T20:00:30.858Z,94422.91
2023-01-13T20:03:03.289Z,94414.50
2023-01-13T20:05:31.115Z,94417.50
2023-01-13T20:07:58.125Z,94411.34
2023-01-13T20:10:25.243Z,94411.34
2023-01-13T20:12:58.364Z,94415.75
2023-01-13T20:15:26.281Z,94405.66
2023-01-13T20:17:53.887Z,94414.34
2023-01-13T20:20:30.424Z,94408.16
2023-01-13T20:23:00.246Z,94407.91
2023-01-13T20:25:31.503Z,94412.56
2023-01-13T20:27:58.848Z,94407.13
2023-01-13T20:30:28.596Z,94404.97
2023-01-13T20:32:55.473Z,94395.84
2023-01-13T20:35:29.646Z,94396.13
2023-01-13T20:37:56.675Z,94406.09
2023-01-13T20:40:41.809Z,94396.78
2023-01-13T20:43:08.615Z,94400.28
2023-01-13T20:45:43.945Z,94400.75
2023-01-13T20:48:19.480Z,94401.41
2023-01-13T20:51:10.846Z,94400.06
2023-01-13T20:53:37.662Z,94406.47
2023-01-13T20:56:08.768Z,94398.06
2023-01-13T20:58:37.341Z,94412.16
2023-01-13T21:01:04.650Z,94411.38
2023-01-13T21:03:31.368Z,94396.69
2023-01-13T21:05:58.419Z,94409.41
2023-01-13T21:08:25.021Z,94407.97
2023-01-13T21:10:51.678Z,94409.22
2023-01-13T21:13:37.054Z,94403.25
2023-01-13T21:16:03.914Z,94407.53
2023-01-13T21:18:49.059Z,94407.84
2023-01-13T21:21:16.113Z,94403.56
2023-01-13T21:23:44.429Z,94404.16
2023-01-13T21:26:12.250Z,94409.16
2023-01-13T21:28:38.976Z,94405.81
2023-01-13T21:31:08.751Z,94401.69
2023-01-13T21:33:36.242Z,94412.44
2023-01-13T21:36:16.016Z,94413.19
2023-01-13T21:38:42.657Z,94422.16
2023-01-13T21:41:09.533Z,94408.03
2023-01-13T21:43:56.345Z,94412.06
2023-01-13T21:46:42.388Z,94420.44
2023-01-13T21:49:09.074Z,94410.16
2023-01-13T21:51:35.722Z,94410.88
2023-01-13T21:54:02.519Z,94403.47
2023-01-13T21:56:29.128Z,94404.94
2023-01-13T21:58:58.325Z,94405.72
2023-01-13T22:01:25.201Z,94406.22
2023-01-13T22:04:17.998Z,94409.22
2023-01-13T22:06:53.115Z,94407.78
2023-01-13T22:09:19.856Z,94400.72
2023-01-13T22:11:46.492Z,94402.59
2023-01-13T22:14:14.065Z,94396.75
2023-01-13T22:16:49.050Z,94395.91
2023-01-13T22:19:18.232Z,94397.84
2023-01-13T22:21:44.944Z,94396.97
2023-01-13T22:24:11.757Z,94396.75
2023-01-13T22:26:38.611Z,94400.53
2023-01-13T22:29:05.249Z,94395.00
2023-01-13T22:31:32.041Z,94389.75
2023-01-13T22:33:58.656Z,94382.47
2023-01-13T22:36:25.323Z,94382.56
2023-01-13T22:38:56.351Z,94386.91
2023-01-13T22:41:23.544Z,94392.41
2023-01-13T22:43:50.237Z,94392.84
2023-01-13T22:46:17.469Z,94395.13
2023-01-13T22:48:44.397Z,94395.00
2023-01-13T22:51:16.298Z,94396.31
2023-01-13T22:53:42.884Z,94395.31
2023-01-13T22:56:21.502Z,94394.66
2023-01-13T22:58:49.126Z,94395.06
2023-01-13T23:01:17.469Z,94392.97
2023-01-13T23:03:47.689Z,94382.00
2023-01-13T23:06:14.916Z,94381.09
2023-01-13T23:08:41.924Z,94380.44
2023-01-13T23:11:10.738Z,94392.34
2023-01-13T23:13:39.383Z,94382.13
2023-01-13T23:16:08.554Z,94387.31
2023-01-13T23:18:35.185Z,94382.84
2023-01-13T23:21:10.663Z,94373.75
2023-01-13T23:23:37.945Z,94384.41
2023-01-13T23:26:06.047Z,94390.44
2023-01-13T23:28:33.606Z,94375.19
2023-01-13T23:31:00.546Z,94378.78
2023-01-13T23:33:27.269Z,94378.59
2023-01-13T23:36:02.135Z,94374.94
2023-01-13T23:38:29.552Z,94382.41
2023-01-13T23:40:56.858Z,94370.06
2023-01-13T23:43:24.002Z,94376.38
2023-01-13T23:45:50.633Z,94379.16
2023-01-13T23:48:18.674Z,94368.66
2023-01-13T23:50:56.021Z,94375.09
2023-01-13T23:53:22.621Z,94375.56
2023-01-13T23:55:49.205Z,94370.69
2023-01-13T23:58:15.905Z,94371.38
